Time;durP1;ratioP1;P1;durP2;ratioP2;P2;SDS_P1;SDS_P2;PMS_P1;PMS_P2;Temp;Humidity;BMP_temperature;BMP_pressure;BME280_temperature;BME280_humidity;BME280_pressure;Samples;Min_cycle;Max_cycle;Signal;HPM_P1;HPM_P2
2021/12/29 00:00:59;;;;;;;25.03;16.80;;;;;;;8.81;95.54;94224.09;5113354;28;20454;-78
2021/12/29 00:03:26;;;;;;;30.97;17.97;;;;;;;8.93;94.82;94223.81;5113404;28;20447;-78
2021/12/29 00:05:53;;;;;;;26.37;17.60;;;;;;;8.99;94.81;94230.31;5115946;28;20474;-79
2021/12/29 00:08:22;;;;;;;28.63;19.10;;;;;;;9.03;94.75;94231.69;5117526;28;20948;-79
2021/12/29 00:10:54;;;;;;;35.73;22.60;;;;;;;9.10;94.32;94226.75;5117861;28;20448;-78
2021/12/29 00:13:21;;;;;;;36.57;26.20;;;;;;;9.17;93.98;94233.91;5117341;28;20443;-78
2021/12/29 00:15:48;;;;;;;31.20;19.97;;;;;;;9.27;93.15;94239.97;5117552;28;20446;-78
2021/12/29 00:18:17;;;;;;;30.73;18.87;;;;;;;9.36;93.07;94237.47;5117181;28;20801;-78
2021/12/29 00:20:44;;;;;;;30.30;18.83;;;;;;;9.35;93.48;94235.84;5064216;28;20933;-79
2021/12/29 00:23:11;;;;;;;26.20;17.90;;;;;;;9.34;93.18;94239.41;5117367;28;20861;-79
2021/12/29 00:25:40;;;;;;;28.67;17.27;;;;;;;9.37;92.94;94233.91;5117053;28;20513;-78
2021/12/29 00:28:06;;;;;;;25.00;16.60;;;;;;;9.38;92.99;94225.91;5064789;28;20434;-79
2021/12/29 00:30:33;;;;;;;29.10;16.33;;;;;;;9.29;93.42;94209.25;5116761;28;20442;-78
2021/12/29 00:33:01;;;;;;;23.10;15.33;;;;;;;9.30;93.68;94218.75;5117334;28;20434;-78
2021/12/29 00:35:29;;;;;;;26.20;16.43;;;;;;;9.36;93.55;94217.38;5117662;28;20434;-78
2021/12/29 00:37:59;;;;;;;34.77;20.87;;;;;;;9.14;93.85;94215.84;5117631;28;20529;-78
2021/12/29 00:40:26;;;;;;;39.00;22.17;;;;;;;8.99;94.28;94209.41;5117153;28;20446;-78
2021/12/29 00:42:54;;;;;;;25.77;16.50;;;;;;;8.80;95.80;94211.97;5117157;28;20438;-79
2021/12/29 00:45:21;;;;;;;26.23;17.50;;;;;;;8.97;94.73;94213.94;5116487;28;20484;-78
2021/12/29 00:47:50;;;;;;;31.30;21.23;;;;;;;9.04;94.60;94217.66;5116632;28;21011;-79
2021/12/29 00:50:18;;;;;;;39.27;23.37;;;;;;;9.09;94.26;94214.63;5116836;28;21432;-78
2021/12/29 00:52:46;;;;;;;38.57;23.73;;;;;;;9.10;93.79;94213.66;5116809;28;20446;-79
2021/12/29 00:55:14;;;;;;;46.43;26.70;;;;;;;9.15;93.72;94219.28;5116337;28;20470;-78
2021/12/29 00:57:41;;;;;;;45.57;25.77;;;;;;;9.17;92.61;94219.97;5116661;28;20525;-78
2021/12/29 01:00:13;;;;;;;31.50;19.90;;;;;;;9.08;92.71;94218.19;5116272;28;20551;-79
2021/12/29 01:02:41;;;;;;;38.73;22.40;;;;;;;9.27;92.77;94224.28;5116967;28;20478;-78
2021/12/29 01:05:10;;;;;;;42.87;25.70;;;;;;;9.37;91.62;94228.66;5116355;28;20472;-78
2021/12/29 01:07:38;;;;;;;35.60;23.30;;;;;;;9.45;91.94;94211.28;5116358;28;20443;-78
2021/12/29 01:10:06;;;;;;;30.60;20.57;;;;;;;9.54;91.20;94214.84;5116403;28;20439;-79
2021/12/29 01:12:33;;;;;;;22.33;16.30;;;;;;;9.58;90.58;94218.88;5116241;28;20821;-78
2021/12/29 01:15:01;;;;;;;25.33;18.30;;;;;;;9.57;90.72;94215.41;5116499;28;20540;-80
2021/12/29 01:17:31;;;;;;;23.30;15.77;;;;;;;9.35;91.75;94204.41;5080625;28;20437;-78
2021/12/29 01:19:58;;;;;;;28.10;16.70;;;;;;;9.45;90.96;94200.81;5115895;28;20450;-79
2021/12/29 01:22:25;;;;;;;22.90;15.87;;;;;;;9.52;90.16;94203.69;5115751;28;20462;-79
2021/12/29 01:24:52;;;;;;;33.77;20.80;;;;;;;9.50;90.46;94198.59;5115612;28;20438;-78
2021/12/29 01:27:19;;;;;;;30.30;21.73;;;;;;;9.52;90.35;94198.44;5115937;28;20480;-79
2021/12/29 01:29:47;;;;;;;33.53;21.03;;;;;;;9.55;90.68;94196.41;5116044;28;20818;-78
2021/12/29 01:32:14;;;;;;;29.37;18.37;;;;;;;9.60;90.45;94193.34;5116392;28;20448;-78
2021/12/29 01:34:42;;;;;;;31.17;18.53;;;;;;;9.62;90.46;94187.00;5080347;28;20443;-79
2021/12/29 01:37:10;;;;;;;25.60;18.40;;;;;;;9.63;89.93;94182.59;5115963;28;20452;-78
2021/12/29 01:39:36;;;;;;;31.50;21.10;;;;;;;9.64;90.18;94179.00;5115854;28;20454;-78
2021/12/29 01:42:04;;;;;;;31.77;19.17;;;;;;;9.65;89.37;94185.88;5115657;28;20443;-79
2021/12/29 01:44:31;;;;;;;28.60;20.60;;;;;;;9.61;89.46;94184.53;5115492;28;20436;-78
2021/12/29 01:46:59;;;;;;;29.30;19.37;;;;;;;9.53;90.17;94181.75;5115443;28;20569;-78
2021/12/29 01:49:26;;;;;;;27.93;21.30;;;;;;;9.45;90.94;94179.03;5115591;28;20545;-78
2021/12/29 01:52:03;;;;;;;47.23;31.37;;;;;;;9.36;90.36;94174.66;5115598;28;20779;-78
2021/12/29 01:54:35;;;;;;;32.00;20.77;;;;;;;9.19;91.63;94166.53;5115416;28;20442;-78
2021/12/29 01:57:05;;;;;;;31.40;18.30;;;;;;;9.28;91.96;94167.50;5115745;28;20447;-78
2021/12/29 01:59:32;;;;;;;27.87;18.93;;;;;;;9.29;91.64;94169.97;5079655;28;20443;-78
2021/12/29 02:01:59;;;;;;;30.83;20.47;;;;;;;9.33;91.14;94157.44;5115604;28;20446;-78
2021/12/29 02:04:26;;;;;;;30.53;19.63;;;;;;;9.38;91.16;94164.84;5115437;28;20439;-79
2021/12/29 02:06:55;;;;;;;30.80;19.50;;;;;;;9.41;90.71;94156.72;5062578;28;20465;-78
2021/12/29 02:09:21;;;;;;;29.17;19.20;;;;;;;9.41;90.55;94149.69;5115404;28;20475;-79
2021/12/29 02:11:49;;;;;;;45.13;30.70;;;;;;;9.41;90.14;94146.25;5115448;28;20447;-78
2021/12/29 02:14:16;;;;;;;34.77;21.73;;;;;;;9.36;90.66;94141.44;5115028;28;20439;-78
2021/12/29 02:16:43;;;;;;;35.13;20.30;;;;;;;9.35;90.85;94136.34;5116082;28;20454;-78
2021/12/29 02:19:12;;;;;;;31.83;20.03;;;;;;;9.22;90.36;94126.97;5115948;28;20439;-79
2021/12/29 02:21:50;;;;;;;34.33;20.20;;;;;;;9.08;90.64;94119.59;5116125;28;20535;-78
2021/12/29 02:24:19;;;;;;;36.17;20.43;;;;;;;9.07;91.26;94117.94;5115943;28;20450;-78
2021/12/29 02:26:48;;;;;;;27.87;20.33;;;;;;;8.95;92.10;94104.16;5080615;28;21003;-78
2021/12/29 02:29:19;;;;;;;36.33;23.70;;;;;;;8.97;92.82;94096.19;5114299;28;20449;-78
2021/12/29 02:31:47;;;;;;;32.33;21.03;;;;;;;8.69;94.09;94090.03;5062884;28;20925;-79
2021/12/29 02:34:15;;;;;;;25.00;16.23;;;;;;;8.82;94.13;94087.09;5114436;28;20955;-79
2021/12/29 02:36:45;;;;;;;34.73;19.93;;;;;;;8.91;93.66;94079.25;5114571;28;20451;-78
2021/12/29 02:39:15;;;;;;;28.73;19.23;;;;;;;9.02;93.03;94088.75;5114682;28;20446;-79
2021/12/29 02:41:45;;;;;;;28.57;18.77;;;;;;;9.05;93.22;94093.69;5114411;28;20525;-79
2021/12/29 02:44:17;;;;;;;25.07;16.83;;;;;;;9.10;92.86;94081.00;5114241;28;20434;-78
2021/12/29 02:46:45;;;;;;;29.87;18.23;;;;;;;9.14;92.14;94085.00;5114139;28;20514;-79
2021/12/29 02:49:12;;;;;;;28.23;18.20;;;;;;;9.18;91.72;94073.25;5114510;28;20451;-78
2021/12/29 02:51:39;;;;;;;27.47;19.30;;;;;;;9.21;92.14;94085.25;5114134;28;20443;-79
2021/12/29 02:54:07;;;;;;;36.77;24.90;;;;;;;9.20;91.69;94080.97;5114271;28;20444;-78
2021/12/29 02:56:35;;;;;;;47.63;31.50;;;;;;;9.23;91.60;94091.97;5114615;28;20478;-78
2021/12/29 02:59:02;;;;;;;56.50;31.73;;;;;;;9.27;92.15;94084.69;5114419;28;20442;-79
2021/12/29 03:01:30;;;;;;;53.10;32.73;;;;;;;9.25;91.80;94094.47;5114285;28;20448;-78
2021/12/29 03:03:58;;;;;;;49.70;31.50;;;;;;;9.14;92.27;94087.59;5113835;28;20450;-79
2021/12/29 03:06:26;;;;;;;50.10;31.50;;;;;;;9.14;92.98;94098.06;5114433;28;20486;-78
2021/12/29 03:08:53;;;;;;;48.10;29.97;;;;;;;9.17;93.08;94086.50;5114601;28;20482;-79
2021/12/29 03:11:21;;;;;;;48.60;30.50;;;;;;;9.12;92.91;94079.06;5061555;28;20436;-78
2021/12/29 03:13:48;;;;;;;38.77;24.47;;;;;;;9.15;92.86;94084.03;5114520;28;20543;-79
2021/12/29 03:16:15;;;;;;;42.23;25.60;;;;;;;9.14;92.44;94073.69;5114339;28;20458;-78
2021/12/29 03:18:43;;;;;;;39.93;25.43;;;;;;;9.19;91.97;94074.09;5113754;28;20941;-78
2021/12/29 03:21:11;;;;;;;40.80;27.00;;;;;;;9.15;92.42;94068.31;5113949;28;20450;-79
2021/12/29 03:23:38;;;;;;;43.13;28.20;;;;;;;9.21;91.69;94067.75;5113512;28;20454;-78
2021/12/29 03:26:06;;;;;;;45.43;27.67;;;;;;;9.20;91.61;94063.47;5113607;28;20543;-78
2021/12/29 03:28:36;;;;;;;39.73;25.40;;;;;;;9.22;91.25;94074.63;5113556;28;20439;-79
2021/12/29 03:31:03;;;;;;;39.73;26.77;;;;;;;9.20;91.75;94075.75;5078626;28;20434;-79
2021/12/29 03:33:30;;;;;;;46.77;28.23;;;;;;;9.21;91.19;94062.50;5113983;28;20435;-78
2021/12/29 03:36:01;;;;;;;53.70;33.37;;;;;;;9.17;91.53;94060.31;5113463;28;20443;-79
2021/12/29 03:38:30;;;;;;;47.00;31.40;;;;;;;9.18;90.92;94065.41;5113498;28;20442;-78
2021/12/29 03:40:58;;;;;;;43.70;30.50;;;;;;;9.16;91.59;94077.00;5113600;28;20933;-79
2021/12/29 03:43:27;;;;;;;53.67;32.70;;;;;;;9.13;91.24;94067.63;5113417;28;20439;-78
2021/12/29 03:45:56;;;;;;;46.77;30.70;;;;;;;9.10;90.82;94065.31;5061034;28;20431;-79
2021/12/29 03:48:25;;;;;;;44.17;29.77;;;;;;;9.07;91.00;94065.59;5113412;28;20537;-79
2021/12/29 03:50:52;;;;;;;44.63;29.20;;;;;;;9.08;92.00;94066.41;5113214;28;20973;-79
2021/12/29 03:53:19;;;;;;;39.80;25.30;;;;;;;9.04;91.59;94060.63;5113297;28;20443;-78
2021/12/29 03:55:50;;;;;;;31.73;21.20;;;;;;;9.07;91.55;94062.97;5113007;28;20482;-78
2021/12/29 03:58:17;;;;;;;41.43;25.93;;;;;;;9.09;91.47;94068.06;5113366;28;20932;-79
2021/12/29 04:00:45;;;;;;;51.67;27.57;;;;;;;9.07;91.50;94062.16;5113256;28;20458;-79
2021/12/29 04:03:13;;;;;;;54.60;28.83;;;;;;;9.04;92.00;94059.81;5060658;28;20448;-79
2021/12/29 04:05:40;;;;;;;46.87;26.57;;;;;;;9.00;91.29;94056.66;5113227;28;20929;-78
2021/12/29 04:08:07;;;;;;;45.10;23.60;;;;;;;8.98;92.11;94056.81;5061366;28;20490;-78
2021/12/29 04:10:35;;;;;;;36.30;22.50;;;;;;;8.97;92.65;94046.47;5060546;28;20449;-78
2021/12/29 04:13:02;;;;;;;43.20;23.60;;;;;;;8.92;92.84;94048.66;5113113;28;20443;-79
2021/12/29 04:15:30;;;;;;;38.57;23.93;;;;;;;8.88;92.54;94055.16;5113601;28;20443;-78
2021/12/29 04:17:59;;;;;;;45.00;21.70;;;;;;;8.88;92.93;94049.91;5113023;28;20440;-78
2021/12/29 04:23:15;;;;;;;32.67;19.80;;;;;;;8.87;92.27;94049.09;5113492;28;20473;-78
2021/12/29 04:25:45;;;;;;;34.13;19.43;;;;;;;8.89;92.75;94052.38;5113292;28;20439;-78
2021/12/29 04:28:16;;;;;;;34.53;22.57;;;;;;;8.89;92.59;94052.38;5112530;28;20485;-78
2021/12/29 04:30:44;;;;;;;36.53;21.90;;;;;;;8.87;92.60;94045.66;5113203;28;20443;-79
2021/12/29 04:33:11;;;;;;;37.87;22.20;;;;;;;8.82;92.98;94035.63;5112900;28;20441;-79
2021/12/29 04:35:40;;;;;;;39.33;23.80;;;;;;;8.68;93.18;94034.28;5112583;28;20819;-78
2021/12/29 04:38:07;;;;;;;35.23;23.60;;;;;;;8.66;94.16;94046.63;5112969;28;20456;-78
2021/12/29 04:40:35;;;;;;;45.93;26.50;;;;;;;8.57;94.97;94044.03;5113346;28;20436;-78
2021/12/29 04:43:02;;;;;;;37.90;25.60;;;;;;;8.50;94.68;94048.19;5060241;28;20443;-78
2021/12/29 04:45:29;;;;;;;43.20;26.90;;;;;;;8.43;95.07;94047.09;5113213;28;20472;-78
2021/12/29 04:47:56;;;;;;;44.80;26.97;;;;;;;8.42;95.90;94046.25;5112880;28;20494;-79
2021/12/29 04:50:25;;;;;;;39.70;25.30;;;;;;;8.40;96.32;94052.59;5113699;28;20866;-78
2021/12/29 04:52:55;;;;;;;37.53;23.40;;;;;;;8.40;96.10;94056.03;5063449;28;20431;-78
2021/12/29 04:55:22;;;;;;;35.93;21.80;;;;;;;8.41;97.27;94070.75;5116779;28;20467;-79
2021/12/29 04:57:49;;;;;;;35.77;25.00;;;;;;;8.46;96.96;94065.09;5116458;28;20964;-79
2021/12/29 05:00:17;;;;;;;43.37;24.70;;;;;;;8.47;96.75;94064.16;5116181;28;20447;-78
2021/12/29 05:02:44;;;;;;;40.33;24.30;;;;;;;8.41;96.97;94067.31;5116464;28;20447;-79
2021/12/29 05:05:23;;;;;;;41.47;26.10;;;;;;;8.40;96.79;94063.06;5116221;28;20944;-78
2021/12/29 05:10:37;;;;;;;50.63;30.17;;;;;;;8.07;98.34;94065.84;5116433;28;20780;-78
2021/12/29 05:13:04;;;;;;;51.57;28.43;;;;;;;8.12;99.11;94068.09;5115939;28;20821;-78
2021/12/29 05:15:31;;;;;;;50.70;29.30;;;;;;;8.13;99.13;94058.47;5115984;28;20443;-79
2021/12/29 05:17:59;;;;;;;44.87;27.80;;;;;;;8.07;98.69;94063.25;5116035;28;20450;-78
2021/12/29 05:20:28;;;;;;;45.43;30.67;;;;;;;8.04;98.59;94063.50;5116183;28;20439;-78
2021/12/29 05:22:55;;;;;;;44.30;28.50;;;;;;;8.08;98.75;94067.50;5063844;28;20508;-79
2021/12/29 05:25:22;;;;;;;39.53;25.43;;;;;;;8.07;98.91;94065.84;5116264;28;20446;-78
2021/12/29 05:27:51;;;;;;;42.00;27.47;;;;;;;8.12;98.56;94075.91;5115852;28;20489;-78
2021/12/29 05:30:19;;;;;;;44.17;29.10;;;;;;;8.17;98.93;94065.88;5116081;28;20801;-78
2021/12/29 05:32:46;;;;;;;46.60;27.83;;;;;;;8.23;97.82;94074.97;5115560;28;20450;-78
2021/12/29 05:35:14;;;;;;;52.07;31.97;;;;;;;8.28;97.94;94075.38;5116590;28;20438;-77
2021/12/29 05:37:41;;;;;;;45.13;30.27;;;;;;;8.31;97.08;94072.47;5115983;28;20447;-78
2021/12/29 05:40:10;;;;;;;41.57;27.57;;;;;;;8.37;97.20;94070.19;5115816;28;20439;-78
2021/12/29 05:42:37;;;;;;;45.63;29.57;;;;;;;8.43;97.45;94076.66;5115922;28;20447;-78
2021/12/29 05:45:09;;;;;;;40.93;25.17;;;;;;;8.47;96.53;94085.88;5080034;28;20449;-79
2021/12/29 05:47:37;;;;;;;49.33;29.00;;;;;;;8.41;96.51;94085.63;5115482;28;20573;-78
2021/12/29 05:50:05;;;;;;;48.83;31.70;;;;;;;8.37;96.59;94087.66;5116065;28;20439;-78
2021/12/29 05:52:32;;;;;;;50.50;31.23;;;;;;;8.44;96.78;94094.00;5116087;28;20449;-78
2021/12/29 05:54:59;;;;;;;47.80;29.33;;;;;;;8.47;96.88;94101.56;5115679;28;20555;-78
2021/12/29 05:57:26;;;;;;;49.60;29.80;;;;;;;8.55;95.82;94101.69;5115345;28;20445;-77
2021/12/29 05:59:53;;;;;;;47.00;31.17;;;;;;;8.61;96.04;94089.88;5079515;28;20446;-78
2021/12/29 06:02:22;;;;;;;48.23;31.87;;;;;;;8.60;95.57;94089.03;5114659;28;20447;-78
2021/12/29 06:04:48;;;;;;;58.23;35.50;;;;;;;8.44;96.09;94088.78;5115288;28;20959;-78
2021/12/29 06:07:15;;;;;;;59.10;34.30;;;;;;;8.53;95.57;94085.34;5115036;28;21004;-77
2021/12/29 06:09:43;;;;;;;58.73;33.37;;;;;;;8.55;95.49;94091.25;5063043;28;20442;-78
2021/12/29 06:12:10;;;;;;;49.70;32.37;;;;;;;8.50;96.22;94084.78;5063281;28;20496;-78
2021/12/29 06:14:37;;;;;;;52.13;32.30;;;;;;;8.53;95.76;94089.72;5115407;28;20447;-78
2021/12/29 06:17:04;;;;;;;49.03;30.40;;;;;;;8.58;95.86;94090.97;5115532;28;20457;-79
2021/12/29 06:19:33;;;;;;;48.97;30.27;;;;;;;8.62;95.67;94094.94;5115142;28;20438;-79
2021/12/29 06:22:01;;;;;;;45.50;29.87;;;;;;;8.63;95.50;94085.31;5114627;28;20470;-78
2021/12/29 06:24:27;;;;;;;47.27;32.00;;;;;;;8.71;94.98;94088.09;5114622;28;20449;-79
2021/12/29 06:26:54;;;;;;;45.17;28.60;;;;;;;8.75;94.87;94086.84;5114767;28;20446;-78
2021/12/29 06:29:21;;;;;;;44.67;30.63;;;;;;;8.77;95.02;94099.78;5114717;28;20454;-78
2021/12/29 06:31:48;;;;;;;47.07;29.87;;;;;;;8.81;95.15;94107.22;5114530;28;20918;-78
2021/12/29 06:34:15;;;;;;;47.10;27.50;;;;;;;8.84;94.75;94113.94;5078701;28;20917;-79
2021/12/29 06:36:44;;;;;;;48.80;30.80;;;;;;;8.89;95.26;94111.75;5114696;28;20450;-78
2021/12/29 06:39:11;;;;;;;48.80;29.80;;;;;;;8.92;94.93;94108.84;5062077;28;20445;-79
2021/12/29 06:41:38;;;;;;;45.77;29.13;;;;;;;8.95;94.55;94116.41;5114143;28;20882;-78
2021/12/29 06:44:06;;;;;;;40.73;29.70;;;;;;;8.97;94.48;94114.50;5114446;28;20442;-78
2021/12/29 06:46:34;;;;;;;45.50;30.97;;;;;;;8.91;94.23;94108.00;5078749;28;20447;-78
2021/12/29 06:49:01;;;;;;;51.00;31.47;;;;;;;8.82;94.56;94100.19;5114094;28;20490;-78
2021/12/29 06:51:28;;;;;;;50.70;31.20;;;;;;;8.82;94.91;94108.84;5114640;28;20438;-78
2021/12/29 06:53:56;;;;;;;49.70;31.40;;;;;;;8.84;94.94;94112.16;5113965;28;20958;-78
2021/12/29 06:56:23;;;;;;;54.37;36.37;;;;;;;8.87;95.73;94111.06;5113848;28;20469;-79
2021/12/29 06:58:50;;;;;;;55.00;31.93;;;;;;;8.90;95.24;94108.16;5113784;28;20447;-79
2021/12/29 07:01:17;;;;;;;42.67;28.60;;;;;;;8.79;96.18;94103.09;5078312;28;20474;-79
2021/12/29 07:03:44;;;;;;;54.87;31.50;;;;;;;8.82;96.08;94111.47;5114507;28;20438;-78
2021/12/29 07:06:11;;;;;;;48.90;29.90;;;;;;;8.81;96.31;94111.63;5114480;28;20438;-78
2021/12/29 07:08:40;;;;;;;47.53;30.70;;;;;;;8.85;96.42;94107.75;5113652;28;20557;-78
2021/12/29 07:11:08;;;;;;;44.47;31.27;;;;;;;8.89;96.33;94107.34;5114367;28;20471;-78
2021/12/29 07:13:35;;;;;;;47.50;33.03;;;;;;;8.93;96.29;94108.69;5114538;28;20434;-78
2021/12/29 07:16:02;;;;;;;52.50;34.37;;;;;;;8.97;96.31;94122.34;5114069;28;20443;-79
2021/12/29 07:18:29;;;;;;;66.47;42.60;;;;;;;8.97;96.60;94111.88;5113835;28;20996;-78
2021/12/29 07:20:56;;;;;;;91.90;53.37;;;;;;;9.00;96.72;94120.28;5114122;28;20451;-78
2021/12/29 07:23:23;;;;;;;73.67;47.70;;;;;;;9.07;96.53;94123.16;5114541;28;20449;-78
2021/12/29 07:25:50;;;;;;;61.80;34.67;;;;;;;9.09;96.48;94120.41;5078162;28;20435;-79
2021/12/29 07:28:18;;;;;;;55.17;34.80;;;;;;;9.12;96.29;94120.94;5113734;28;20577;-78
2021/12/29 07:30:45;;;;;;;48.73;34.23;;;;;;;9.13;95.93;94119.97;5113609;28;20449;-78
2021/12/29 07:33:12;;;;;;;48.80;32.57;;;;;;;9.15;96.74;94125.06;5114070;28;20956;-78
2021/12/29 07:35:39;;;;;;;49.97;29.00;;;;;;;9.13;96.18;94127.00;5113826;28;20441;-78
2021/12/29 07:38:06;;;;;;;57.90;36.97;;;;;;;9.15;95.82;94122.44;5113552;28;20917;-79
2021/12/29 07:40:34;;;;;;;58.93;36.00;;;;;;;9.16;96.16;94132.78;5114623;28;20442;-78
2021/12/29 07:43:02;;;;;;;62.10;35.60;;;;;;;9.19;96.17;94131.69;5114275;28;20489;-78
2021/12/29 07:45:31;;;;;;;63.93;39.23;;;;;;;9.20;96.77;94133.31;5113634;28;20439;-78
2021/12/29 07:47:58;;;;;;;56.03;37.80;;;;;;;9.23;96.66;94133.88;5113630;28;20533;-78
2021/12/29 07:50:25;;;;;;;61.87;37.40;;;;;;;9.23;96.79;94125.19;5113851;28;20457;-78
2021/12/29 07:52:52;;;;;;;54.63;33.63;;;;;;;9.25;97.81;94131.97;5113528;28;20438;-78
2021/12/29 07:55:19;;;;;;;54.40;34.13;;;;;;;9.28;97.60;94131.69;5061325;28;20485;-78
2021/12/29 07:57:46;;;;;;;51.23;32.43;;;;;;;9.30;97.95;94137.59;5113523;28;20442;-79
2021/12/29 08:00:16;;;;;;;49.13;33.40;;;;;;;9.25;98.63;94131.97;5113069;28;20431;-78
2021/12/29 08:02:44;;;;;;;54.93;33.90;;;;;;;9.31;98.93;94139.25;5113004;28;20793;-78
2021/12/29 08:05:13;;;;;;;56.70;34.60;;;;;;;9.33;99.07;94139.09;5113010;28;20467;-78
2021/12/29 08:07:40;;;;;;;52.87;36.00;;;;;;;9.36;99.49;94138.00;5113145;28;20885;-79
2021/12/29 08:10:08;;;;;;;52.17;36.40;;;;;;;9.38;98.94;94131.66;5113343;28;20438;-79
2021/12/29 08:12:35;;;;;;;53.97;33.20;;;;;;;9.35;99.92;94136.34;5113077;28;20800;-79
2021/12/29 08:15:02;;;;;;;54.07;35.73;;;;;;;9.27;99.69;94137.06;5113069;28;20871;-79
2021/12/29 08:17:32;;;;;;;53.73;32.80;;;;;;;9.25;99.67;94137.19;5113139;28;20435;-78
2021/12/29 08:20:00;;;;;;;55.23;34.20;;;;;;;9.29;100.00;94132.50;5113371;28;20438;-78
2021/12/29 08:22:27;;;;;;;52.57;35.50;;;;;;;9.35;100.00;94136.34;5113855;28;20516;-78
2021/12/29 08:24:54;;;;;;;66.47;40.60;;;;;;;9.30;100.00;94137.59;5113518;28;20454;-78
2021/12/29 08:27:22;;;;;;;73.70;41.43;;;;;;;9.25;100.00;94139.81;5064339;28;20427;-78
2021/12/29 08:29:49;;;;;;;51.70;33.40;;;;;;;9.21;100.00;94132.34;5117033;28;20439;-79
2021/12/29 08:32:16;;;;;;;58.20;36.73;;;;;;;8.98;100.00;94124.00;5117483;28;20442;-77
2021/12/29 08:34:42;;;;;;;72.77;44.87;;;;;;;8.95;100.00;94130.31;5117822;28;20438;-78
2021/12/29 08:37:11;;;;;;;61.17;36.70;;;;;;;9.00;100.00;94127.31;5117504;28;20442;-78
2021/12/29 08:39:38;;;;;;;60.47;34.80;;;;;;;8.93;100.00;94126.19;5117123;28;20438;-79
2021/12/29 08:42:05;;;;;;;60.33;34.20;;;;;;;8.85;100.00;94123.44;5116227;28;20439;-79
2021/12/29 08:44:32;;;;;;;68.27;39.60;;;;;;;8.90;100.00;94123.84;5117315;28;20525;-80
2021/12/29 08:46:59;;;;;;;72.17;40.60;;;;;;;8.97;100.00;94127.59;5117590;28;20442;-79
2021/12/29 08:49:26;;;;;;;63.13;34.27;;;;;;;9.06;100.00;94134.59;5117553;28;20992;-80
2021/12/29 08:51:53;;;;;;;65.10;36.77;;;;;;;9.16;100.00;94127.53;5065028;28;20474;-79
2021/12/29 08:54:22;;;;;;;63.07;37.60;;;;;;;9.25;100.00;94128.50;5117367;28;20438;-79
2021/12/29 08:56:48;;;;;;;62.77;42.07;;;;;;;9.32;100.00;94129.59;5116977;28;20454;-79
2021/12/29 08:59:15;;;;;;;60.27;39.23;;;;;;;9.39;100.00;94120.22;5116957;28;20446;-79
2021/12/29 09:01:42;;;;;;;63.47;40.40;;;;;;;9.44;100.00;94131.06;5117076;28;20447;-80
2021/12/29 09:04:09;;;;;;;70.63;41.63;;;;;;;9.47;100.00;94120.31;5116580;28;20443;-81
2021/12/29 09:06:36;;;;;;;62.13;40.90;;;;;;;9.50;100.00;94121.81;5116847;28;20791;-80
2021/12/29 09:09:04;;;;;;;66.00;37.83;;;;;;;9.51;100.00;94123.47;5117381;28;20489;-79
2021/12/29 09:11:32;;;;;;;58.50;36.37;;;;;;;9.47;100.00;94116.88;5116756;28;20527;-79
2021/12/29 09:14:00;;;;;;;59.33;36.67;;;;;;;9.48;100.00;94121.97;5117306;28;20443;-79
2021/12/29 09:16:27;;;;;;;52.70;34.73;;;;;;;9.50;100.00;94113.97;5116200;28;20443;-80
2021/12/29 09:18:54;;;;;;;51.70;34.50;;;;;;;9.55;100.00;94117.00;5115976;28;20446;-78
2021/12/29 09:21:21;;;;;;;57.67;35.07;;;;;;;9.58;100.00;94111.47;5081056;28;20501;-77
2021/12/29 09:23:48;;;;;;;80.47;48.10;;;;;;;9.60;100.00;94106.91;5116509;28;20804;-79
2021/12/29 09:26:17;;;;;;;86.77;55.20;;;;;;;9.64;100.00;94103.03;5116786;28;20454;-79
2021/12/29 09:28:48;;;;;;;113.80;74.67;;;;;;;9.65;100.00;94109.09;5080370;28;20559;-79
2021/12/29 09:31:15;;;;;;;116.93;70.63;;;;;;;9.69;100.00;94100.81;5116112;28;20450;-79
2021/12/29 09:33:43;;;;;;;109.80;66.37;;;;;;;9.71;100.00;94093.63;5115999;28;20913;-79
2021/12/29 09:36:10;;;;;;;97.40;62.83;;;;;;;9.70;100.00;94099.84;5115630;28;20446;-79
2021/12/29 09:38:40;;;;;;;85.83;56.10;;;;;;;9.69;100.00;94086.88;5115442;28;20525;-79
2021/12/29 09:41:08;;;;;;;87.57;53.83;;;;;;;9.43;100.00;94091.94;5115830;28;20454;-79
2021/12/29 09:43:35;;;;;;;84.13;53.50;;;;;;;9.32;100.00;94075.44;5116970;28;20526;-79
2021/12/29 09:46:05;;;;;;;118.73;78.27;;;;;;;8.96;100.00;94076.19;5116653;28;20446;-79
2021/12/29 09:48:32;;;;;;;81.10;50.60;;;;;;;8.86;100.00;94072.78;5116723;28;20535;-79
2021/12/29 09:50:59;;;;;;;73.17;44.30;;;;;;;8.78;100.00;94072.66;5116158;28;20542;-79
2021/12/29 09:53:26;;;;;;;77.90;44.53;;;;;;;8.69;100.00;94072.53;5116301;28;20441;-79
2021/12/29 09:55:53;;;;;;;82.23;48.23;;;;;;;8.57;100.00;94062.34;5116539;28;20470;-79
2021/12/29 09:58:20;;;;;;;69.77;42.63;;;;;;;8.77;100.00;94068.41;5116508;28;20471;-78
2021/12/29 10:00:50;;;;;;;80.73;55.37;;;;;;;8.87;100.00;94071.81;5116359;28;20516;-79
2021/12/29 10:03:21;;;;;;;75.07;48.23;;;;;;;9.05;100.00;94064.09;5115964;28;20443;-78
2021/12/29 10:05:52;;;;;;;60.33;35.57;;;;;;;8.98;100.00;94056.81;5115957;28;20447;-78
2021/12/29 10:08:23;;;;;;;55.63;38.30;;;;;;;9.14;100.00;94058.00;5115532;28;20509;-79
2021/12/29 10:10:58;;;;;;;57.97;36.07;;;;;;;9.25;100.00;94048.19;5062320;28;20439;-78
2021/12/29 10:13:28;;;;;;;45.43;24.40;;;;;;;9.35;100.00;94049.94;5116245;28;20449;-78
2021/12/29 10:16:01;;;;;;;38.00;23.80;;;;;;;9.36;100.00;94046.34;5063442;28;20430;-78
2021/12/29 10:18:32;;;;;;;35.30;22.17;;;;;;;9.47;100.00;94036.50;5115962;28;20446;-78
2021/12/29 10:21:02;;;;;;;30.33;21.80;;;;;;;9.60;100.00;94033.59;5115272;28;20501;-78
2021/12/29 10:23:31;;;;;;;34.10;21.37;;;;;;;9.71;100.00;94038.63;5114803;28;20438;-78
2021/12/29 10:26:06;;;;;;;27.43;18.23;;;;;;;9.75;100.00;94028.66;5114459;28;20811;-78
2021/12/29 10:28:34;;;;;;;24.50;17.37;;;;;;;9.78;100.00;94028.38;5114569;28;20497;-79
2021/12/29 10:31:04;;;;;;;26.60;16.70;;;;;;;9.84;100.00;94020.78;5114854;28;20536;-79
2021/12/29 10:33:37;;;;;;;21.57;16.30;;;;;;;9.92;100.00;94018.22;5114711;28;20548;-79
2021/12/29 10:36:23;;;;;;;21.80;16.30;;;;;;;9.91;100.00;94023.63;5114637;28;21008;-79
2021/12/29 10:38:58;;;;;;;29.30;17.50;;;;;;;9.88;100.00;94013.44;5114239;28;20453;-79
2021/12/29 10:41:25;;;;;;;25.90;20.60;;;;;;;9.91;100.00;94013.13;5115108;28;20503;-79
2021/12/29 10:43:57;;;;;;;34.43;22.67;;;;;;;9.98;100.00;94008.94;5114923;28;20530;-79
2021/12/29 10:46:24;;;;;;;30.67;22.53;;;;;;;10.05;100.00;94015.25;5115769;28;20455;-78
2021/12/29 10:48:54;;;;;;;35.93;23.27;;;;;;;10.13;100.00;94007.47;5115166;28;20478;-79
2021/12/29 10:51:30;;;;;;;53.70;25.77;;;;;;;10.21;100.00;94004.13;5115036;28;20444;-78
2021/12/29 10:54:10;;;;;;;57.90;28.13;;;;;;;10.26;100.00;94006.31;5115692;28;20448;-79
2021/12/29 10:56:38;;;;;;;54.37;26.83;;;;;;;10.27;100.00;94003.53;5115660;28;21051;-78
2021/12/29 10:59:21;;;;;;;46.63;24.90;;;;;;;10.35;100.00;94003.59;5114979;28;20934;-78
2021/12/29 11:01:49;;;;;;;30.60;20.33;;;;;;;10.38;100.00;94000.66;5114621;28;20450;-79
2021/12/29 11:04:18;;;;;;;29.93;21.47;;;;;;;10.35;100.00;94000.16;5114957;28;20439;-78
2021/12/29 11:06:47;;;;;;;45.27;32.00;;;;;;;10.29;100.00;93996.34;5115367;28;20444;-78
2021/12/29 11:09:23;;;;;;;56.33;39.03;;;;;;;10.21;100.00;93996.28;5115153;28;20489;-79
2021/12/29 11:11:50;;;;;;;54.43;34.90;;;;;;;10.19;100.00;93995.56;5115456;28;20445;-79
2021/12/29 11:14:18;;;;;;;48.83;30.17;;;;;;;10.12;100.00;93995.34;5114184;28;20454;-79
2021/12/29 11:16:47;;;;;;;59.37;32.80;;;;;;;10.05;100.00;93986.41;5061910;28;20436;-79
2021/12/29 11:19:14;;;;;;;32.97;24.47;;;;;;;9.98;100.00;93989.78;5114276;28;20444;-80
2021/12/29 11:21:44;;;;;;;32.03;23.63;;;;;;;9.98;100.00;93987.16;5061845;28;20427;-79
2021/12/29 11:24:15;;;;;;;35.70;23.93;;;;;;;10.00;100.00;93982.59;5114447;28;20434;-80
2021/12/29 11:26:44;;;;;;;36.30;23.30;;;;;;;9.96;100.00;93981.25;5061460;28;20765;-79
2021/12/29 11:29:14;;;;;;;36.50;23.77;;;;;;;9.87;100.00;93970.69;5114456;28;20489;-78
2021/12/29 11:31:44;;;;;;;38.77;22.50;;;;;;;9.92;100.00;93970.25;5113751;28;20446;-78